Time;durP1;ratioP1;P1;durP2;ratioP2;P2;SDS_P1;SDS_P2;PMS_P1;PMS_P2;Temp;Humidity;BMP_temperature;BMP_pressure;BME280_temperature;BME280_humidity;BME280_pressure;Samples;Min_cycle;Max_cycle;Signal;HPM_P1;HPM_P2
2021/09/22 00:01:13;;;;;;;;;20.00;19.75;;;;;22.27;41.73;102421.44;5078450;28;45489;-49
2021/09/22 00:03:40;;;;;;;;;20.00;19.25;;;;;22.26;41.52;102417.09;5078084;28;46479;-50
2021/09/22 00:06:05;;;;;;;;;20.50;19.50;;;;;22.26;41.50;102409.16;5078102;28;45410;-48
2021/09/22 00:08:31;;;;;;;;;23.00;22.00;;;;;22.27;41.58;102412.66;5078580;28;45318;-47
2021/09/22 00:10:56;;;;;;;;;23.25;20.50;;;;;22.26;41.87;102405.66;5078377;28;45197;-48
2021/09/22 00:13:22;;;;;;;;;22.75;21.25;;;;;22.26;41.74;102408.28;5078155;28;46518;-51
2021/09/22 00:15:47;;;;;;;;;20.50;20.00;;;;;22.26;41.85;102408.28;5078014;28;45368;-54
2021/09/22 00:18:13;;;;;;;;;16.75;16.50;;;;;22.23;41.64;102415.41;5078024;28;45731;-53
2021/09/22 00:20:39;;;;;;;;;23.75;20.25;;;;;22.24;41.56;102411.00;5078164;28;45435;-52
2021/09/22 00:23:05;;;;;;;;;23.00;19.75;;;;;22.24;41.70;102411.84;5078038;28;46442;-56
2021/09/22 00:25:32;;;;;;;;;20.00;19.00;;;;;22.23;41.72;102407.47;5078248;28;45989;-52
2021/09/22 00:28:02;;;;;;;;;21.50;21.25;;;;;22.21;41.65;102409.31;5078105;28;45446;-54
2021/09/22 00:30:27;;;;;;;;;24.25;22.50;;;;;22.23;41.86;102410.13;5078235;28;45417;-52
2021/09/22 00:32:53;;;;;;;;;19.50;19.00;;;;;22.21;41.43;102404.03;5077759;28;45597;-55
2021/09/22 00:35:18;;;;;;;;;19.00;19.00;;;;;22.20;41.79;102407.63;5077959;28;45217;-50
2021/09/22 00:37:44;;;;;;;;;21.75;21.00;;;;;22.20;41.63;102397.06;5078172;28;45344;-49
2021/09/22 00:40:10;;;;;;;;;23.00;20.00;;;;;22.21;41.47;102396.09;5078046;28;45183;-58
2021/09/22 00:42:36;;;;;;;;;19.25;17.00;;;;;22.21;41.61;102396.09;5077940;28;46650;-54
2021/09/22 00:45:13;;;;;;;;;25.00;23.25;;;;;22.21;41.56;102398.75;5078200;28;45488;-55
2021/09/22 00:47:39;;;;;;;;;21.00;20.25;;;;;22.21;41.59;102397.91;5078022;28;45311;-55
2021/09/22 00:50:05;;;;;;;;;23.50;20.75;;;;;22.19;41.50;102391.81;5078109;28;45706;-54
2021/09/22 00:52:31;;;;;;;;;23.00;22.00;;;;;22.21;41.85;102400.53;5078054;28;45322;-53
2021/09/22 00:54:56;;;;;;;;;23.25;21.75;;;;;22.18;41.59;102385.69;5059540;28;45389;-61
2021/09/22 00:57:22;;;;;;;;;21.50;20.75;;;;;22.19;41.53;102392.69;5077499;28;45355;-59
2021/09/22 00:59:48;;;;;;;;;20.50;19.50;;;;;22.19;41.89;102387.41;5077754;28;45501;-54
2021/09/22 01:02:14;;;;;;;;;18.25;15.50;;;;;22.18;41.64;102385.69;5077411;28;46449;-58
2021/09/22 01:04:40;;;;;;;;;21.00;19.75;;;;;22.18;41.47;102388.31;5077073;28;45515;-59
2021/09/22 01:07:08;;;;;;;;;21.50;21.50;;;;;22.18;41.57;102384.81;5077810;28;45427;-63
2021/09/22 01:09:34;;;;;;;;;23.25;20.25;;;;;22.18;41.74;102390.09;5077994;28;45439;-52
2021/09/22 01:12:00;;;;;;;;;20.50;20.25;;;;;22.18;41.61;102387.44;5077281;28;45379;-53
2021/09/22 01:14:27;;;;;;;;;22.00;22.00;;;;;22.16;41.77;102376.09;5059122;28;45247;-53
2021/09/22 01:16:53;;;;;;;;;22.75;19.50;;;;;22.17;41.65;102383.09;5077229;28;45400;-64
2021/09/22 01:19:20;;;;;;;;;26.75;23.00;;;;;22.17;41.98;102383.97;5077557;28;45311;-63
2021/09/22 01:21:49;;;;;;;;;21.75;20.50;;;;;22.17;41.72;102383.97;5058916;28;46436;-64
2021/09/22 01:24:16;;;;;;;;;23.50;21.75;;;;;22.16;41.68;102371.66;5077177;28;45836;-60
2021/09/22 01:26:42;;;;;;;;;23.00;20.25;;;;;22.15;41.63;102366.47;5077298;28;45228;-65
2021/09/22 01:29:08;;;;;;;;;22.50;21.00;;;;;22.15;41.69;102369.09;5077280;28;45327;-55
2021/09/22 01:31:38;;;;;;;;;23.25;21.25;;;;;22.15;41.76;102380.50;5077145;28;45415;-65
2021/09/22 01:34:05;;;;;;;;;23.50;21.25;;;;;22.15;41.63;102371.75;5076834;28;45382;-58
2021/09/22 01:36:30;;;;;;;;;26.75;22.75;;;;;22.15;41.45;102364.66;5077031;28;45478;-64
2021/09/22 01:38:55;;;;;;;;;18.50;17.75;;;;;22.15;41.78;102362.03;5077227;28;45233;-66
2021/09/22 01:41:21;;;;;;;;;21.50;20.00;;;;;22.14;41.64;102357.66;5076699;28;46710;-62
2021/09/22 01:43:47;;;;;;;;;20.75;20.75;;;;;22.13;41.50;102355.94;5076766;28;45353;-63
2021/09/22 01:46:12;;;;;;;;;18.50;18.50;;;;;22.14;41.38;102357.66;5077116;28;45819;-61
2021/09/22 01:48:39;;;;;;;;;21.75;19.75;;;;;22.13;41.77;102349.81;5059216;28;45510;-57
2021/09/22 01:51:06;;;;;;;;;18.00;18.00;;;;;22.13;41.65;102350.66;5076889;28;45654;-56
2021/09/22 01:53:32;;;;;;;;;19.25;18.00;;;;;22.13;41.60;102360.38;5076671;28;45991;-63
2021/09/22 01:56:00;;;;;;;;;23.00;18.25;;;;;22.14;41.78;102362.09;5076794;28;45477;-55
2021/09/22 01:58:26;;;;;;;;;20.75;18.75;;;;;22.12;41.70;102364.78;5076875;28;45177;-58
2021/09/22 02:01:01;;;;;;;;;21.25;20.00;;;;;22.13;41.60;102366.50;5076072;28;46313;-52
2021/09/22 02:03:26;;;;;;;;;20.50;20.50;;;;;22.12;41.90;102370.06;5076694;28;45239;-55
2021/09/22 02:05:52;;;;;;;;;23.00;20.25;;;;;22.12;41.52;102367.41;5076651;28;45250;-53
2021/09/22 02:08:17;;;;;;;;;23.75;21.50;;;;;22.08;41.42;102356.13;5076794;28;45167;-49
2021/09/22 02:10:43;;;;;;;;;20.75;19.25;;;;;22.12;41.75;102361.28;5076341;28;46695;-60
2021/09/22 02:13:09;;;;;;;;;19.25;19.25;;;;;22.11;41.49;102363.03;5076785;28;45889;-55
2021/09/22 02:15:35;;;;;;;;;17.00;16.25;;;;;22.09;41.63;102359.63;5076757;28;45460;-54
2021/09/22 02:18:01;;;;;;;;;23.00;18.75;;;;;22.09;41.58;102357.84;5076595;28;45352;-57
2021/09/22 02:20:27;;;;;;;;;21.50;20.50;;;;;22.09;41.74;102357.00;5076247;28;45498;-61
2021/09/22 02:22:52;;;;;;;;;21.75;21.00;;;;;22.09;42.00;102343.78;5058131;28;45471;-62
2021/09/22 02:25:18;;;;;;;;;23.50;20.75;;;;;22.08;41.58;102339.44;5076279;28;45363;-53
2021/09/22 02:27:44;;;;;;;;;21.00;18.75;;;;;22.08;41.70;102335.00;5058269;28;45457;-59
2021/09/22 02:30:13;;;;;;;;;20.75;20.75;;;;;22.07;41.75;102321.84;5076450;28;46421;-51
2021/09/22 02:32:41;;;;;;;;;20.00;19.00;;;;;22.07;41.61;102319.22;5076490;28;45230;-52
2021/09/22 02:35:07;;;;;;;;;18.00;18.00;;;;;22.07;41.27;102314.78;5076655;28;45401;-47
2021/09/22 02:37:34;;;;;;;;;21.50;19.50;;;;;22.05;41.55;102305.22;5076371;28;45261;-64
2021/09/22 02:39:59;;;;;;;;;21.50;18.25;;;;;22.05;41.69;102303.41;5076078;28;45427;-56
2021/09/22 02:42:24;;;;;;;;;26.25;21.50;;;;;22.06;41.63;102299.00;5076070;28;45262;-55
2021/09/22 02:44:51;;;;;;;;;25.00;22.00;;;;;22.04;41.56;102303.50;5076171;28;45371;-50
2021/09/22 02:47:16;;;;;;;;;23.00;21.25;;;;;22.03;41.39;102293.84;5079903;28;45468;-55
2021/09/22 02:49:42;;;;;;;;;20.75;19.75;;;;;22.04;41.83;102292.94;5079404;28;46094;-53
2021/09/22 02:52:08;;;;;;;;;20.00;19.50;;;;;22.04;41.68;102287.66;5079840;28;45894;-49
2021/09/22 02:54:33;;;;;;;;;19.75;19.00;;;;;22.04;41.59;102290.28;5079638;28;45296;-54
2021/09/22 02:56:59;;;;;;;;;22.00;19.00;;;;;22.03;41.57;102288.56;5079480;28;45240;-48
2021/09/22 02:59:24;;;;;;;;;19.50;19.50;;;;;22.02;41.82;102289.47;5079179;28;46726;-55
2021/09/22 03:01:50;;;;;;;;;20.25;19.50;;;;;22.02;41.70;102286.84;5079414;28;45467;-53
2021/09/22 03:04:15;;;;;;;;;21.25;20.50;;;;;22.01;41.43;102282.47;5079417;28;45526;-48
2021/09/22 03:06:41;;;;;;;;;20.50;19.00;;;;;22.02;41.69;102276.28;5079800;28;45602;-50
2021/09/22 03:09:06;;;;;;;;;25.00;19.50;;;;;22.01;41.85;102277.19;5095428;27;48022;-53
2021/09/22 03:11:32;;;;;;;;;22.50;22.00;;;;;22.00;41.66;102273.72;5079110;28;45436;-60
2021/09/22 03:13:57;;;;;;;;;21.75;21.75;;;;;22.00;41.60;102275.47;5079461;28;45382;-65
2021/09/22 03:16:22;;;;;;;;;23.50;22.75;;;;;22.00;41.47;102286.03;5079306;28;45518;-64
2021/09/22 03:18:48;;;;;;;;;23.25;20.50;;;;;21.98;41.68;102279.97;5079024;28;45478;-53
2021/09/22 03:21:13;;;;;;;;;22.25;19.75;;;;;21.96;41.37;102285.28;5079063;28;45372;-48
2021/09/22 03:23:39;;;;;;;;;24.50;23.75;;;;;21.99;41.55;102276.41;5079511;28;45393;-50
2021/09/22 03:26:04;;;;;;;;;19.00;15.50;;;;;21.98;41.41;102272.91;5079220;28;45336;-48
2021/09/22 03:28:30;;;;;;;;;19.50;19.50;;;;;21.97;41.47;102279.09;5078799;28;47483;-57
2021/09/22 03:30:55;;;;;;;;;18.25;18.25;;;;;21.97;41.52;102276.47;5078948;28;45285;-52
2021/09/22 03:33:20;;;;;;;;;23.00;20.50;;;;;21.97;41.69;102276.47;5079048;28;45327;-50
2021/09/22 03:35:46;;;;;;;;;23.50;22.25;;;;;21.96;41.63;102272.09;5079084;28;45554;-48
2021/09/22 03:38:12;;;;;;;;;22.00;20.50;;;;;21.95;41.40;102278.28;5078911;28;46346;-54
2021/09/22 03:40:38;;;;;;;;;25.00;21.75;;;;;21.96;41.39;102274.72;5078783;28;45292;-48
2021/09/22 03:43:03;;;;;;;;;28.25;24.25;;;;;21.97;41.55;102286.16;5078961;28;45283;-48
2021/09/22 03:45:30;;;;;;;;;24.75;21.50;;;;;21.95;41.36;102285.38;5078998;28;45318;-59
2021/09/22 03:47:55;;;;;;;;;24.50;21.25;;;;;21.95;41.44;102288.84;5078452;28;45528;-63
2021/09/22 03:50:23;;;;;;;;;20.00;19.50;;;;;21.92;41.25;102279.28;5078600;28;45342;-52
2021/09/22 03:52:48;;;;;;;;;24.75;19.75;;;;;21.93;41.45;102278.38;5078776;28;45285;-50
2021/09/22 03:55:14;;;;;;;;;25.50;22.50;;;;;21.93;41.42;102290.72;5079240;28;45766;-55
2021/09/22 03:57:40;;;;;;;;;17.25;16.50;;;;;21.92;41.64;102289.84;5060160;28;47794;-60
2021/09/22 04:00:06;;;;;;;;;19.25;18.25;;;;;21.92;41.56;102295.13;5069989;28;45324;-54
2021/09/22 04:02:32;;;;;;;;;22.25;21.25;;;;;21.91;41.46;102293.38;5058429;28;45172;-63
2021/09/22 04:04:57;;;;;;;;;22.75;22.00;;;;;21.92;41.65;102289.00;5058577;28;45586;-66
2021/09/22 04:07:23;;;;;;;;;17.75;17.75;;;;;21.90;41.85;102298.75;5057993;28;45402;-65
2021/09/22 04:09:48;;;;;;;;;20.00;18.00;;;;;21.90;41.44;102307.50;5058133;28;45277;-50
2021/09/22 04:12:13;;;;;;;;;20.25;19.25;;;;;21.88;41.26;102309.34;5058556;28;45405;-62
2021/09/22 04:14:39;;;;;;;;;21.50;18.00;;;;;21.90;41.40;102306.66;5058278;28;45504;-49
2021/09/22 04:17:04;;;;;;;;;27.00;22.75;;;;;21.89;41.27;102305.78;5057902;28;45267;-47
2021/09/22 04:19:29;;;;;;;;;21.75;19.50;;;;;21.90;41.43;102304.03;5057839;28;45444;-47
2021/09/22 04:21:55;;;;;;;;;18.75;17.00;;;;;21.88;41.63;102304.06;5057986;28;45724;-48
2021/09/22 04:24:20;;;;;;;;;19.25;18.75;;;;;21.88;41.19;102313.78;5058156;28;45562;-52
2021/09/22 04:26:46;;;;;;;;;22.00;21.00;;;;;21.88;41.38;102311.97;5058053;28;45315;-49
2021/09/22 04:29:11;;;;;;;;;22.75;22.75;;;;;21.87;41.31;102302.38;5058101;28;45328;-51
2021/09/22 04:31:37;;;;;;;;;22.00;18.75;;;;;21.87;41.21;102302.38;5057904;28;45434;-51
2021/09/22 04:34:03;;;;;;;;;22.00;19.50;;;;;21.86;41.47;102308.56;5057968;28;45564;-47
2021/09/22 04:36:29;;;;;;;;;22.75;21.75;;;;;21.86;41.54;102305.91;5057715;28;45470;-47
2021/09/22 04:38:54;;;;;;;;;23.25;20.75;;;;;21.85;41.33;102303.31;5057542;28;45277;-56
2021/09/22 04:41:19;;;;;;;;;29.25;22.50;;;;;21.85;41.22;102303.31;5057865;28;45454;-58
2021/09/22 04:43:46;;;;;;;;;25.00;19.50;;;;;21.84;41.40;102296.31;5058186;28;45386;-51
2021/09/22 04:46:12;;;;;;;;;22.25;19.25;;;;;21.80;41.38;102290.31;5057847;28;45239;-55
2021/09/22 04:48:40;;;;;;;;;20.75;19.25;;;;;21.84;41.50;102305.13;5057498;28;45191;-53
2021/09/22 04:51:06;;;;;;;;;20.50;17.50;;;;;21.83;41.47;102300.75;5057510;28;45425;-51
2021/09/22 04:53:31;;;;;;;;;23.25;19.75;;;;;21.83;41.37;102303.38;5057619;28;45490;-52
2021/09/22 04:55:57;;;;;;;;;18.00;16.75;;;;;21.83;41.30;102306.03;5057505;28;46344;-49
2021/09/22 04:58:23;;;;;;;;;29.00;22.00;;;;;21.79;41.06;102304.41;5057105;28;45349;-50
2021/09/22 05:00:48;;;;;;;;;23.00;20.50;;;;;21.80;41.22;102306.13;5071533;28;45413;-57
2021/09/22 05:03:15;;;;;;;;;25.25;21.25;;;;;21.80;41.04;102300.84;5078068;28;45443;-48
2021/09/22 05:05:41;;;;;;;;;22.50;20.25;;;;;21.81;41.35;102302.56;5077235;28;45464;-50
2021/09/22 05:08:07;;;;;;;;;20.25;18.50;;;;;21.79;41.30;102304.41;5076575;28;45277;-51
2021/09/22 05:10:32;;;;;;;;;19.25;19.25;;;;;21.78;41.36;102300.03;5077399;28;45197;-49
2021/09/22 05:12:57;;;;;;;;;22.75;21.25;;;;;21.78;41.31;102308.84;5077768;28;45277;-52
2021/09/22 05:15:23;;;;;;;;;22.50;21.25;;;;;21.77;41.29;102306.28;5077166;28;46294;-50
2021/09/22 05:17:48;;;;;;;;;23.75;20.25;;;;;21.77;41.43;102295.72;5077057;28;45389;-46
2021/09/22 05:20:13;;;;;;;;;19.00;19.00;;;;;21.75;41.21;102297.53;5077554;28;45265;-50
2021/09/22 05:22:39;;;;;;;;;21.50;20.00;;;;;21.78;41.34;102302.69;5077393;28;45458;-51
2021/09/22 05:25:05;;;;;;;;;20.75;18.50;;;;;21.77;41.01;102301.84;5076894;28;46533;-49
2021/09/22 05:27:31;;;;;;;;;22.75;19.00;;;;;21.78;41.20;102310.59;5077076;27;45337;-53
2021/09/22 05:29:56;;;;;;;;;22.00;21.50;;;;;21.77;41.34;102308.91;5077006;28;45298;-47
2021/09/22 05:32:22;;;;;;;;;22.75;21.25;;;;;21.76;41.11;102300.13;5077330;28;45327;-59
2021/09/22 05:34:47;;;;;;;;;22.75;19.00;;;;;21.76;41.30;102299.28;5077183;28;45343;-58
2021/09/22 05:37:13;;;;;;;;;20.00;17.25;;;;;21.75;41.24;102301.03;5058561;28;45358;-50
2021/09/22 05:39:39;;;;;;;;;21.00;19.50;;;;;21.76;41.06;102304.56;5077044;28;45409;-51
2021/09/22 05:42:05;;;;;;;;;20.50;18.50;;;;;21.72;41.27;102301.13;5076999;28;45382;-51
2021/09/22 05:44:31;;;;;;;;;18.00;14.00;;;;;21.73;41.41;102302.88;5076869;28;45362;-48
2021/09/22 05:46:56;;;;;;;;;28.25;21.75;;;;;21.75;41.13;102318.66;5076891;28;45260;-50
2021/09/22 05:49:21;;;;;;;;;23.00;20.50;;;;;21.75;41.15;102308.09;5076727;28;45271;-46
2021/09/22 05:51:47;;;;;;;;;18.00;18.00;;;;;21.73;41.02;102313.41;5077268;28;45689;-52
2021/09/22 05:54:12;;;;;;;;;20.75;18.25;;;;;21.73;41.02;102321.34;5076623;28;46300;-51
2021/09/22 05:56:38;;;;;;;;;23.00;19.75;;;;;21.74;41.22;102322.22;5076331;28;45351;-51
2021/09/22 05:59:03;;;;;;;;;20.25;19.00;;;;;21.73;41.28;102315.22;5076568;28;45294;-53
2021/09/22 06:01:29;;;;;;;;;22.75;21.75;;;;;21.73;41.02;102321.34;5076719;28;45225;-49
2021/09/22 06:03:54;;;;;;;;;21.00;20.50;;;;;21.73;41.09;102320.50;5076364;28;45575;-47
2021/09/22 06:06:20;;;;;;;;;22.25;21.75;;;;;21.72;41.21;102329.31;5076785;28;45370;-58
2021/09/22 06:08:45;;;;;;;;;20.50;19.75;;;;;21.72;41.30;102324.88;5076696;28;45297;-49
2021/09/22 06:11:11;;;;;;;;;20.50;20.25;;;;;21.73;41.11;102328.41;5076835;28;45322;-55
2021/09/22 06:13:36;;;;;;;;;23.50;20.00;;;;;21.71;41.15;102323.19;5076275;28;46259;-54
2021/09/22 06:16:01;;;;;;;;;20.75;19.25;;;;;21.73;41.36;102323.13;5076377;28;45323;-56
2021/09/22 06:18:27;;;;;;;;;24.25;22.25;;;;;21.72;41.12;102329.31;5076475;28;45466;-53
2021/09/22 06:20:52;;;;;;;;;19.25;18.50;;;;;21.72;41.36;102329.31;5079628;28;45416;-49
2021/09/22 06:23:18;;;;;;;;;18.25;16.25;;;;;21.72;40.96;102324.88;5079959;28;45459;-65
2021/09/22 06:25:43;;;;;;;;;21.25;19.00;;;;;21.73;41.01;102328.41;5079970;28;45402;-68
2021/09/22 06:28:08;;;;;;;;;22.00;20.25;;;;;21.71;41.16;102328.47;5079937;28;45327;-54
2021/09/22 06:30:34;;;;;;;;;17.75;15.75;;;;;21.72;40.96;102324.03;5080392;28;45501;-53
2021/09/22 06:33:00;;;;;;;;;23.50;21.25;;;;;21.73;40.99;102331.03;5079676;28;46369;-58
2021/09/22 06:35:25;;;;;;;;;23.75;19.50;;;;;21.73;41.28;102331.03;5079799;28;45406;-61
2021/09/22 06:37:52;;;;;;;;;19.75;19.75;;;;;21.72;41.02;102335.44;5080070;28;45423;-58
2021/09/22 06:40:22;;;;;;;;;23.00;20.75;;;;;21.72;41.25;102338.09;5080222;28;45438;-47
2021/09/22 06:42:48;;;;;;;;;22.50;21.25;;;;;21.73;41.28;102338.97;5080117;28;45321;-47
2021/09/22 06:45:15;;;;;;;;;20.75;20.75;;;;;21.73;40.92;102338.97;5079642;28;45379;-49
2021/09/22 06:47:41;;;;;;;;;20.75;19.75;;;;;21.72;41.16;102330.16;5061394;28;45319;-53
2021/09/22 06:50:07;;;;;;;;;20.75;20.00;;;;;21.73;40.88;102336.31;5079807;28;45434;-47
2021/09/22 06:52:32;;;;;;;;;22.00;19.50;;;;;21.73;41.34;102337.16;5078272;28;45594;-53
2021/09/22 06:54:59;;;;;;;;;20.25;19.75;;;;;21.74;40.95;102340.69;5079536;28;45261;-50
2021/09/22 06:57:25;;;;;;;;;21.00;20.00;;;;;21.73;41.29;102333.69;5079696;28;45449;-54
2021/09/22 06:59:51;;;;;;;;;21.25;18.75;;;;;21.74;41.14;102338.03;5080011;28;45480;-59
2021/09/22 07:02:16;;;;;;;;;21.50;20.00;;;;;21.74;41.18;102338.03;5061373;28;47541;-51
2021/09/22 07:04:42;;;;;;;;;20.75;18.50;;;;;21.74;41.38;102330.13;5079216;28;45248;-50
2021/09/22 07:07:07;;;;;;;;;20.25;18.50;;;;;21.73;41.32;102337.16;5079197;28;45496;-51
2021/09/22 07:09:33;;;;;;;;;20.00;17.50;;;;;21.75;41.27;102345.03;5079530;28;45386;-48
2021/09/22 07:11:58;;;;;;;;;20.50;18.50;;;;;21.75;41.24;102339.78;5060860;28;46069;-47
2021/09/22 07:14:23;;;;;;;;;23.00;21.75;;;;;21.76;41.18;102342.34;5079472;28;45324;-49
2021/09/22 07:16:49;;;;;;;;;21.50;19.00;;;;;21.73;41.07;102331.88;5079318;28;45324;-50
2021/09/22 07:19:14;;;;;;;;;17.75;16.25;;;;;21.74;41.08;102335.41;5079347;28;45633;-50
2021/09/22 07:21:40;;;;;;;;;21.75;20.00;;;;;21.76;41.08;102346.78;5078873;28;46315;-47
2021/09/22 07:24:05;;;;;;;;;22.75;18.00;;;;;21.76;41.19;102358.19;5078924;28;45209;-46
2021/09/22 07:26:31;;;;;;;;;20.25;17.00;;;;;21.78;41.07;102358.09;5079191;28;45409;-48
2021/09/22 07:28:56;;;;;;;;;22.25;18.75;;;;;21.77;40.96;102359.91;5079234;28;45311;-51
2021/09/22 07:31:22;;;;;;;;;22.50;20.50;;;;;21.78;40.94;102358.09;5078347;28;45240;-49
2021/09/22 07:33:47;;;;;;;;;22.25;20.00;;;;;21.79;41.23;102362.47;5078847;28;45291;-50
2021/09/22 07:36:13;;;;;;;;;23.50;21.75;;;;;21.79;41.37;102365.13;5078976;28;45438;-60
2021/09/22 07:38:39;;;;;;;;;23.00;20.25;;;;;21.79;40.93;102365.13;5078869;28;45171;-50
2021/09/22 07:41:06;;;;;;;;;18.00;18.00;;;;;21.80;41.37;102366.00;5078742;28;46363;-47
2021/09/22 07:43:32;;;;;;;;;20.25;19.00;;;;;21.80;40.99;102360.72;5094488;27;46111;-54
2021/09/22 07:45:59;;;;;;;;;19.25;19.25;;;;;21.80;41.02;102364.19;5078782;28;45429;-53
2021/09/22 07:48:24;;;;;;;;;20.50;18.25;;;;;21.81;41.03;102365.06;5079151;28;45517;-54
2021/09/22 07:50:50;;;;;;;;;26.25;21.00;;;;;21.80;41.12;102373.91;5078408;28;45421;-52
2021/09/22 07:53:16;;;;;;;;;21.00;16.50;;;;;21.79;41.13;102373.03;5078700;28;45380;-51
2021/09/22 07:55:41;;;;;;;;;20.00;17.25;;;;;21.80;41.22;102373.91;5078703;28;45430;-47
2021/09/22 07:58:07;;;;;;;;;16.00;13.75;;;;;21.77;40.74;102373.09;5078683;28;45257;-48
2021/09/22 08:00:32;;;;;;;;;20.00;18.50;;;;;21.76;40.58;102374.00;5078345;28;45595;-47
2021/09/22 08:02:59;;;;;;;;;19.50;18.00;;;;;21.75;40.75;102367.00;5078479;28;45366;-49
2021/09/22 08:05:25;;;;;;;;;18.25;15.75;;;;;21.76;40.60;102373.16;5078641;28;45466;-50
2021/09/22 08:07:51;;;;;;;;;17.75;16.25;;;;;21.76;40.59;102373.16;5078573;28;45332;-49
2021/09/22 08:10:17;;;;;;;;;23.25;19.75;;;;;21.77;40.47;102378.38;5078142;28;45459;-50
2021/09/22 08:12:44;;;;;;;;;16.50;16.50;;;;;21.78;40.64;102376.59;5078260;28;45419;-48
2021/09/22 08:15:11;;;;;;;;;17.00;17.00;;;;;21.79;40.64;102378.31;5078404;28;45416;-50
2021/09/22 08:17:38;;;;;;;;;26.25;24.25;;;;;21.77;39.85;102374.88;5078336;28;45345;-47
2021/09/22 08:20:03;;;;;;;;;30.75;28.25;;;;;21.73;40.21;102375.91;5078004;28;46383;-47
2021/09/22 08:22:29;;;;;;;;;27.50;24.50;;;;;21.69;40.44;102375.16;5078119;28;45426;-46
2021/09/22 08:24:54;;;;;;;;;30.25;25.75;;;;;21.68;40.48;102372.56;5078542;28;45236;-46
2021/09/22 08:27:21;;;;;;;;;26.50;23.25;;;;;21.66;40.33;102371.78;5078374;28;45291;-47
2021/09/22 08:29:46;;;;;;;;;38.25;30.25;;;;;21.70;39.98;102373.38;5077835;28;46291;-48
2021/09/22 08:32:12;;;;;;;;;31.00;28.25;;;;;21.68;40.00;102375.19;5077928;28;45431;-53
2021/09/22 08:34:37;;;;;;;;;29.25;24.75;;;;;21.68;40.07;102381.34;5059825;28;45408;-55
2021/09/22 08:37:02;;;;;;;;;28.75;27.75;;;;;21.68;40.29;102380.47;5078047;28;45253;-49
2021/09/22 08:39:32;;;;;;;;;33.00;28.25;;;;;21.67;40.39;102379.63;5078300;28;46170;-52
2021/09/22 08:41:57;;;;;;;;;28.00;26.25;;;;;21.70;40.45;102383.91;5077903;28;45186;-62
2021/09/22 08:44:23;;;;;;;;;30.75;28.75;;;;;21.72;40.38;102374.19;5076827;28;45569;-64
2021/09/22 08:46:48;;;;;;;;;34.75;29.75;;;;;21.72;40.21;102366.25;5078263;28;46083;-49
2021/09/22 08:49:15;;;;;;;;;46.75;35.75;;;;;21.73;39.95;102378.53;5093268;27;47454;-61
2021/09/22 08:51:41;;;;;;;;;39.25;32.75;;;;;21.74;40.33;102380.28;5093302;27;45900;-63
2021/09/22 08:54:07;;;;;;;;;37.00;32.50;;;;;21.73;40.16;102376.75;5093669;27;45403;-65
2021/09/22 08:56:36;;;;;;;;;39.00;32.50;;;;;21.76;40.40;102389.00;5077848;28;45306;-65
2021/09/22 08:59:03;;;;;;;;;37.00;32.50;;;;;21.75;40.00;102382.00;5059318;28;47292;-61
2021/09/22 09:01:28;;;;;;;;;38.50;34.50;;;;;21.77;40.02;102386.28;5076183;28;45855;-60
2021/09/22 09:03:54;;;;;;;;;36.75;31.00;;;;;21.77;40.64;102375.72;5077719;28;45176;-55
2021/09/22 09:06:25;;;;;;;;;40.50;34.50;;;;;21.80;40.21;102384.47;5077817;28;45371;-60
2021/09/22 09:08:57;;;;;;;;;40.50;34.00;;;;;21.79;39.95;102388.88;5077296;27;46318;-48
2021/09/22 09:11:27;;;;;;;;;41.00;34.25;;;;;21.81;40.00;102387.03;5077312;28;45462;-59
2021/09/22 09:13:54;;;;;;;;;39.75;34.00;;;;;21.81;40.04;102387.03;5077585;28;45337;-57
2021/09/22 09:16:22;;;;;;;;;33.50;31.75;;;;;21.83;39.93;102387.00;5077666;27;45220;-55
2021/09/22 09:18:57;;;;;;;;;35.00;33.25;;;;;21.84;40.21;102380.78;5077055;27;45550;-58
2021/09/22 09:21:23;;;;;;;;;37.75;32.75;;;;;21.85;39.85;102380.75;5077174;27;45340;-61
2021/09/22 09:23:55;;;;;;;;;34.75;31.50;;;;;21.87;39.82;102376.28;5078053;27;45266;-46
2021/09/22 09:26:23;;;;;;;;;30.25;29.50;;;;;21.88;40.17;102374.47;5077548;28;45408;-46
2021/09/22 09:28:53;;;;;;;;;34.50;29.50;;;;;21.91;40.01;102377.00;5077042;27;46748;-49
2021/09/22 09:31:19;;;;;;;;;35.00;28.25;;;;;21.91;40.05;102375.22;5077028;27;45825;-47
2021/09/22 09:33:56;;;;;;;;;33.50;28.50;;;;;21.95;39.84;102377.75;5077112;27;45351;-50
2021/09/22 09:36:27;;;;;;;;;31.75;28.50;;;;;21.93;39.93;102376.03;5077401;27;45885;-46
2021/09/22 09:38:57;;;;;;;;;27.25;26.25;;;;;21.93;39.70;102375.19;5076808;27;46492;-56
2021/09/22 09:41:25;;;;;;;;;26.75;24.25;;;;;21.93;40.03;102376.03;5076949;28;45374;-52
2021/09/22 09:43:51;;;;;;;;;29.00;25.50;;;;;21.96;39.96;102376.84;5077078;28;45368;-48
2021/09/22 09:46:24;;;;;;;;;22.50;21.50;;;;;21.97;39.66;102371.50;5077214;28;45503;-47
2021/09/22 09:49:05;;;;;;;;;25.75;24.75;;;;;21.97;39.69;102370.66;5076761;28;46444;-66
2021/09/22 09:51:31;;;;;;;;;29.75;24.50;;;;;21.99;39.71;102363.53;5076966;28;45890;-54
2021/09/22 09:54:19;;;;;;;;;25.25;22.50;;;;;22.00;40.01;102362.59;5076497;28;45279;-59
2021/09/22 09:56:46;;;;;;;;;25.75;25.75;;;;;22.02;40.09;102358.13;5076825;27;45406;-57
2021/09/22 09:59:11;;;;;;;;;27.50;25.25;;;;;22.03;40.06;102351.94;5076324;27;45644;-47
2021/09/22 10:01:59;;;;;;;;;27.00;22.25;;;;;22.04;39.98;102351.88;5076497;28;45405;-45
2021/09/22 10:04:25;;;;;;;;;23.75;23.00;;;;;22.04;39.80;102351.00;5058449;28;45203;-53
2021/09/22 10:06:52;;;;;;;;;26.00;22.00;;;;;22.07;39.59;102350.91;5076825;28;45345;-51
2021/09/22 10:09:18;;;;;;;;;23.75;22.00;;;;;22.09;39.25;102357.00;5075922;28;46066;-52
2021/09/22 10:11:45;;;;;;;;;23.00;20.75;;;;;22.06;38.93;102354.47;5092401;27;45361;-47
2021/09/22 10:14:13;;;;;;;;;22.25;20.25;;;;;22.04;38.91;102351.00;5076666;28;45382;-48
2021/09/22 10:16:40;;;;;;;;;20.25;16.25;;;;;22.04;39.28;102341.31;5092488;27;45495;-49
2021/09/22 10:19:06;;;;;;;;;20.25;19.50;;;;;22.00;39.03;102334.44;5076176;28;46519;-49
2021/09/22 10:21:34;;;;;;;;;24.75;19.50;;;;;22.01;38.82;102341.44;5058462;28;46060;-47
2021/09/22 10:24:02;;;;;;;;;19.75;16.75;;;;;22.00;38.66;102339.72;5076877;28;45449;-50
2021/09/22 10:26:31;;;;;;;;;19.50;18.00;;;;;22.00;38.51;102328.28;5076670;28;45353;-51
2021/09/22 10:28:58;;;;;;;;;17.25;15.75;;;;;21.99;38.50;102316.88;5075055;28;46539;-55
2021/09/22 10:31:26;;;;;;;;;18.25;17.50;;;;;22.00;38.51;102326.50;5076332;28;45845;-47
2021/09/22 10:33:52;;;;;;;;;17.25;13.25;;;;;22.00;38.26;102321.22;5076423;28;45439;-55
2021/09/22 10:36:33;;;;;;;;;17.25;17.25;;;;;22.00;38.52;102307.16;5076534;28;45600;-54
2021/09/22 10:38:59;;;;;;;;;16.50;14.00;;;;;22.00;38.23;102307.16;5076002;28;45569;-65
2021/09/22 10:41:28;;;;;;;;;15.25;15.25;;;;;22.01;38.37;102298.31;5076273;28;45510;-57
2021/09/22 10:43:54;;;;;;;;;20.75;18.75;;;;;22.00;38.19;102308.03;5076286;28;45365;-53
2021/09/22 10:46:21;;;;;;;;;20.25;19.25;;;;;22.01;38.19;102304.47;5076442;28;45339;-54
2021/09/22 10:48:56;;;;;;;;;21.25;19.50;;;;;22.02;38.54;102294.75;5075954;28;46314;-59
2021/09/22 10:51:30;;;;;;;;;23.75;22.75;;;;;22.02;38.65;102287.72;5075984;28;45861;-59
2021/09/22 10:54:16;;;;;;;;;29.75;26.75;;;;;22.02;38.59;102284.19;5057028;28;45403;-61
2021/09/22 10:56:52;;;;;;;;;30.75;27.25;;;;;22.04;38.80;102295.56;5076050;28;45418;-54
2021/09/22 10:59:39;;;;;;;;;28.50;22.75;;;;;22.03;38.61;102291.19;5075792;28;46272;-53
2021/09/22 11:02:07;;;;;;;;;26.00;21.00;;;;;22.03;38.54;102297.34;5076287;28;45441;-58
2021/09/22 11:05:08;;;;;;;;;19.25;18.25;;;;;22.03;38.60;102285.91;5076211;28;45249;-57
2021/09/22 11:07:52;;;;;;;;;17.00;16.00;;;;;22.01;38.35;102277.19;5036374;28;45328;-52